createdAt,value
2022-09-13T00:04:37.125Z,19.65
2022-09-13T00:09:43.662Z,17.42
2022-09-13T00:14:49.838Z,18.98
2022-09-13T00:19:56.341Z,18.45
2022-09-13T00:25:02.403Z,17.93
2022-09-13T00:30:08.587Z,18.75
2022-09-13T00:35:14.674Z,20.87
2022-09-13T00:40:20.969Z,17.49
2022-09-13T00:45:27.320Z,20.23
2022-09-13T00:50:33.462Z,19.13
2022-09-13T00:55:39.676Z,17.79
2022-09-13T01:00:45.846Z,18.87
2022-09-13T01:05:51.929Z,17.77
2022-09-13T01:10:58.155Z,18.57
2022-09-13T01:16:04.609Z,20.52
2022-09-13T01:21:10.699Z,19.94
2022-09-13T01:26:16.803Z,19.51
2022-09-13T01:31:23.440Z,18.70
2022-09-13T01:36:29.984Z,18.81
2022-09-13T01:41:36.457Z,17.99
2022-09-13T01:46:42.936Z,20.93
2022-09-13T01:51:49.176Z,17.88
2022-09-13T01:56:55.274Z,18.65
2022-09-13T02:02:01.570Z,17.91
2022-09-13T02:07:08.447Z,14.91
2022-09-13T02:12:14.700Z,16.62
2022-09-13T02:17:21.086Z,16.15
2022-09-13T02:22:28.078Z,17.25
2022-09-13T02:27:34.192Z,16.18
2022-09-13T02:32:40.726Z,17.54
2022-09-13T02:37:46.786Z,15.16
2022-09-13T02:42:53.091Z,15.90
2022-09-13T02:47:59.233Z,16.23
2022-09-13T02:53:05.456Z,15.46
2022-09-13T02:58:11.894Z,16.03
2022-09-13T03:03:18.313Z,17.19
2022-09-13T03:08:24.470Z,17.22
2022-09-13T03:13:30.648Z,15.74
2022-09-13T03:18:36.857Z,16.31
2022-09-13T03:23:43.287Z,15.57
2022-09-13T03:28:50.007Z,18.00
2022-09-13T03:33:56.221Z,16.10
2022-09-13T03:39:02.324Z,14.99
2022-09-13T03:44:08.961Z,18.34
2022-09-13T03:49:15.880Z,15.66
2022-09-13T03:54:22.053Z,15.62
2022-09-13T03:59:28.148Z,16.38
2022-09-13T04:04:34.359Z,15.77
2022-09-13T04:09:40.551Z,15.46
2022-09-13T04:14:46.712Z,15.19
2022-09-13T04:19:52.878Z,15.54
2022-09-13T04:25:02.196Z,13.22
2022-09-13T04:30:05.694Z,13.62
2022-09-13T04:35:12.012Z,17.16
2022-09-13T04:40:18.538Z,14.51
2022-09-13T04:45:24.730Z,12.95
2022-09-13T04:50:30.879Z,14.22
2022-09-13T04:55:37.069Z,13.89
2022-09-13T05:00:43.272Z,14.43
2022-09-13T05:05:49.359Z,14.42
2022-09-13T05:10:55.754Z,15.54
2022-09-13T05:16:02.034Z,15.30
2022-09-13T05:21:08.201Z,17.20
2022-09-13T05:26:14.468Z,17.40
2022-09-13T05:31:20.602Z,20.18
2022-09-13T05:36:26.992Z,20.09
2022-09-13T05:41:33.225Z,16.51
2022-09-13T05:46:39.580Z,16.42
2022-09-13T05:51:45.821Z,16.23
2022-09-13T05:56:52.834Z,13.30
2022-09-13T06:01:59.347Z,14.19
2022-09-13T06:07:05.594Z,12.52
2022-09-13T06:12:11.674Z,15.66
2022-09-13T06:17:17.883Z,14.81
2022-09-13T06:22:24.226Z,14.24
2022-09-13T06:27:30.836Z,16.08
2022-09-13T06:32:36.936Z,13.90
2022-09-13T06:37:43.197Z,12.28
2022-09-13T06:42:49.319Z,12.00
2022-09-13T06:47:55.877Z,15.50
2022-09-13T06:53:02.136Z,17.13
2022-09-13T06:58:08.319Z,15.64
2022-09-13T07:03:14.431Z,16.03
2022-09-13T07:08:20.775Z,13.40
2022-09-13T07:13:27.336Z,18.29
2022-09-13T07:18:33.536Z,16.46
2022-09-13T07:23:39.690Z,16.24
2022-09-13T07:28:46.016Z,14.78
2022-09-13T07:33:52.036Z,15.17
2022-09-13T07:38:58.241Z,11.55
2022-09-13T07:44:04.348Z,8.50
2022-09-13T07:49:10.561Z,7.00
2022-09-13T07:54:16.750Z,6.22
2022-09-13T07:59:26.951Z,5.46
2022-09-13T08:04:29.405Z,7.62
2022-09-13T08:09:34.392Z,6.54
2022-09-13T08:14:40.450Z,9.45
2022-09-13T08:19:46.756Z,5.27
2022-09-13T08:24:52.870Z,6.26
2022-09-13T08:29:59.033Z,5.65
2022-09-13T08:35:05.246Z,6.20
2022-09-13T08:40:11.577Z,5.83
2022-09-13T08:45:17.598Z,4.66
2022-09-13T08:50:23.784Z,6.69
2022-09-13T08:55:29.880Z,9.57
2022-09-13T09:00:37.052Z,5.70
2022-09-13T09:05:43.237Z,3.48
2022-09-13T09:10:49.458Z,5.37
2022-09-13T09:15:56.401Z,5.03
2022-09-13T09:21:02.563Z,4.42
2022-09-13T09:26:08.642Z,2.66
2022-09-13T09:31:15.031Z,5.64
2022-09-13T09:36:21.049Z,6.43
2022-09-13T09:41:27.310Z,5.55
2022-09-13T09:46:33.402Z,4.72
2022-09-13T09:51:39.838Z,6.75
2022-09-13T09:56:45.936Z,4.48
2022-09-13T10:01:52.427Z,6.52
2022-09-13T10:06:58.447Z,3.98
2022-09-13T10:12:04.614Z,4.74
2022-09-13T10:17:10.806Z,2.82
2022-09-13T10:22:17.014Z,3.94
2022-09-13T10:27:23.511Z,2.63
2022-09-13T10:32:29.791Z,5.72
2022-09-13T10:37:35.889Z,5.85
2022-09-13T10:42:42.093Z,5.81
2022-09-13T10:47:48.261Z,7.84
2022-09-13T10:52:54.627Z,5.01
2022-09-13T10:58:00.709Z,4.74
2022-09-13T11:03:07.008Z,2.48
2022-09-13T11:08:13.128Z,5.17
2022-09-13T11:13:19.332Z,6.11
2022-09-13T11:18:25.467Z,4.01
2022-09-13T11:23:31.859Z,3.52
2022-09-13T11:28:38.096Z,5.41
2022-09-13T11:33:44.302Z,7.07
2022-09-13T11:38:50.370Z,3.45
2022-09-13T11:43:56.783Z,2.55
2022-09-13T11:49:02.870Z,4.68
2022-09-13T11:54:09.183Z,4.28
2022-09-13T11:59:15.693Z,3.29
2022-09-13T12:04:20.933Z,3.93
2022-09-13T12:09:27.015Z,4.00
2022-09-13T12:14:33.185Z,4.16
2022-09-13T12:19:39.230Z,4.88
2022-09-13T12:24:45.400Z,4.36
2022-09-13T12:29:51.450Z,3.61
2022-09-13T12:34:57.915Z,5.16
2022-09-13T12:40:04.120Z,4.41
2022-09-13T12:45:10.823Z,4.13
2022-09-13T12:50:43.007Z,6.09
2022-09-13T12:55:45.526Z,4.09
2022-09-13T13:00:28.360Z,6.54
2022-09-13T13:05:34.566Z,4.69
2022-09-13T13:10:40.678Z,6.90
2022-09-13T13:15:50.109Z,4.42
2022-09-13T13:20:52.583Z,3.53
2022-09-13T13:25:58.746Z,4.52
2022-09-13T13:31:04.814Z,4.62
2022-09-13T13:36:11.032Z,5.47
2022-09-13T13:41:17.191Z,4.39
2022-09-13T13:46:23.329Z,4.36
2022-09-13T13:51:29.451Z,3.83
2022-09-13T13:56:35.726Z,4.69
2022-09-13T14:01:41.905Z,5.98
2022-09-13T14:06:49.937Z,4.00
2022-09-13T14:11:53.901Z,5.04
2022-09-13T14:17:00.228Z,6.01
2022-09-13T14:22:06.348Z,7.39
2022-09-13T14:27:12.536Z,7.56
2022-09-13T14:32:18.648Z,8.36
2022-09-13T14:37:24.808Z,6.25
2022-09-13T14:42:31.023Z,8.01
2022-09-13T14:47:37.327Z,8.49
2022-09-13T14:52:43.534Z,6.74
2022-09-13T14:57:50.374Z,5.13
2022-09-13T15:02:56.920Z,6.57
2022-09-13T15:08:03.325Z,9.21
2022-09-13T15:13:09.877Z,4.57
2022-09-13T15:18:16.418Z,6.57
2022-09-13T15:23:23.059Z,6.64
2022-09-13T15:28:30.404Z,7.34
2022-09-13T15:33:35.514Z,6.81
2022-09-13T15:38:42.299Z,4.23
2022-09-13T15:43:48.454Z,7.62
2022-09-13T15:48:54.574Z,7.12
2022-09-13T15:54:00.629Z,4.67
2022-09-13T15:59:06.960Z,5.53
2022-09-13T16:04:13.069Z,6.00
2022-09-13T16:09:19.282Z,5.52
2022-09-13T16:14:25.402Z,6.58
2022-09-13T16:19:31.625Z,6.13
2022-09-13T16:24:38.121Z,7.43
2022-09-13T16:29:44.359Z,5.02
2022-09-13T16:34:50.577Z,5.37
2022-09-13T16:39:56.862Z,3.84
2022-09-13T16:45:03.237Z,5.18
2022-09-13T16:50:09.779Z,4.24
2022-09-13T16:55:15.889Z,5.56
2022-09-13T17:00:22.388Z,4.60
2022-09-13T17:05:28.594Z,7.16
2022-09-13T17:10:34.897Z,5.81
2022-09-13T17:15:41.067Z,5.03
2022-09-13T17:20:47.252Z,6.07
2022-09-13T17:25:53.394Z,3.43
2022-09-13T17:31:02.319Z,6.20
2022-09-13T17:36:05.325Z,4.48
2022-09-13T17:41:11.591Z,4.64
2022-09-13T17:46:20.016Z,3.07
2022-09-13T17:51:26.283Z,4.24
2022-09-13T17:56:32.352Z,5.11
2022-09-13T18:01:38.713Z,4.42
2022-09-13T18:06:44.767Z,5.63
2022-09-13T18:11:51.148Z,6.32
2022-09-13T18:16:57.246Z,5.37
2022-09-13T18:22:03.773Z,6.05
2022-09-13T18:27:10.456Z,3.88
2022-09-13T18:32:16.585Z,5.85
2022-09-13T18:37:23.489Z,4.28
2022-09-13T18:42:33.267Z,5.42
2022-09-13T18:47:35.909Z,5.78
2022-09-13T18:52:42.440Z,4.55
2022-09-13T18:57:48.730Z,3.57
2022-09-13T19:03:11.266Z,6.35
2022-09-13T19:08:00.837Z,5.12
2022-09-13T19:13:07.075Z,4.97
2022-09-13T19:18:13.253Z,4.09
2022-09-13T19:23:19.518Z,3.32
2022-09-13T19:28:25.598Z,3.61
2022-09-13T19:33:31.908Z,4.62
2022-09-13T19:38:38.053Z,5.67
2022-09-13T19:43:44.368Z,5.48
2022-09-13T19:48:50.621Z,5.18
2022-09-13T19:53:57.734Z,5.75
2022-09-13T19:59:02.855Z,4.48
2022-09-13T20:04:09.998Z,4.03
2022-09-13T20:09:16.461Z,2.88
2022-09-13T20:14:23.493Z,3.85
2022-09-13T20:19:40.943Z,4.62
2022-09-13T20:24:35.314Z,4.35
2022-09-13T20:29:42.381Z,4.97
2022-09-13T20:34:48.560Z,3.47
2022-09-13T20:39:54.704Z,3.45
2022-09-13T20:45:00.807Z,2.59
2022-09-13T20:50:06.915Z,5.79
2022-09-13T20:55:13.269Z,2.63
2022-09-13T21:00:19.772Z,3.21
2022-09-13T21:05:26.039Z,3.25
2022-09-13T21:10:32.119Z,4.88
2022-09-13T21:15:38.534Z,4.92
2022-09-13T21:20:45.458Z,2.44
2022-09-13T21:25:51.713Z,4.49
2022-09-13T21:30:57.846Z,4.04
2022-09-13T21:36:04.301Z,3.40
2022-09-13T21:41:10.402Z,3.58
2022-09-13T21:46:17.177Z,3.98
2022-09-13T21:51:22.320Z,3.57
2022-09-13T21:56:29.414Z,2.01
2022-09-13T22:01:35.541Z,4.37
2022-09-13T22:06:41.841Z,2.92
2022-09-13T22:11:48.526Z,2.97
2022-09-13T22:16:54.889Z,3.07
2022-09-13T22:22:00.928Z,3.70
2022-09-13T22:27:07.394Z,3.91
2022-09-13T22:32:13.494Z,4.32
2022-09-13T22:37:20.083Z,2.36
2022-09-13T22:42:26.168Z,3.45
2022-09-13T22:47:32.358Z,3.58
2022-09-13T22:52:38.471Z,3.33
2022-09-13T22:57:45.621Z,4.10
2022-09-13T23:02:51.770Z,4.40
2022-09-13T23:07:57.940Z,4.31
2022-09-13T23:13:04.372Z,3.04
2022-09-13T23:18:10.576Z,5.22
2022-09-13T23:23:16.811Z,4.76
2022-09-13T23:28:23.347Z,5.82
2022-09-13T23:33:29.813Z,3.41
2022-09-13T23:38:36.777Z,3.30
2022-09-13T23:43:43.383Z,4.08
2022-09-13T23:48:50.189Z,4.59
2022-09-13T23:53:56.269Z,4.34
2022-09-13T23:59:02.407Z,3.98
